Time;durP1;ratioP1;P1;durP2;ratioP2;P2;SDS_P1;SDS_P2;PMS_P1;PMS_P2;Temp;Humidity;BMP_temperature;BMP_pressure;BME280_temperature;BME280_humidity;BME280_pressure;Samples;Min_cycle;Max_cycle;Signal;HPM_P1;HPM_P2
2022/06/13 00:00:27;;;;;;;0.30;0.30;;;17.50;99.90;;;;;;5115277;28;20255;-69
2022/06/13 00:02:53;;;;;;;0.30;0.30;;;17.50;99.90;;;;;;5115043;28;20901;-70
2022/06/13 00:05:19;;;;;;;0.40;0.40;;;17.60;99.90;;;;;;5115019;28;20462;-69
2022/06/13 00:07:45;;;;;;;0.50;0.50;;;17.60;99.90;;;;;;5114143;28;20636;-69
2022/06/13 00:10:13;;;;;;;0.30;0.30;;;17.60;99.90;;;;;;5115129;28;20409;-69
2022/06/13 00:12:41;;;;;;;0.30;0.30;;;17.60;99.90;;;;;;5114724;28;20256;-69
2022/06/13 00:15:09;;;;;;;0.30;0.30;;;17.60;99.90;;;;;;5114848;28;20401;-69
2022/06/13 00:17:34;;;;;;;0.30;0.30;;;17.50;99.90;;;;;;5114913;28;20803;-69
2022/06/13 00:20:01;;;;;;;0.40;0.40;;;17.40;99.90;;;;;;5114672;28;20477;-68
2022/06/13 00:22:26;;;;;;;0.30;0.30;;;17.50;99.90;;;;;;5114788;28;20190;-70
2022/06/13 00:24:52;;;;;;;1.10;1.10;;;17.50;99.90;;;;;;5114670;28;20390;-69
2022/06/13 00:27:18;;;;;;;0.30;0.30;;;17.50;99.90;;;;;;5114854;28;20182;-69
2022/06/13 00:29:47;;;;;;;1.17;0.83;;;17.50;99.90;;;;;;5114731;28;20176;-69
2022/06/13 00:32:13;;;;;;;0.30;0.30;;;17.50;99.90;;;;;;5114371;28;20457;-70
2022/06/13 00:34:39;;;;;;;0.30;0.30;;;17.50;99.90;;;;;;5114542;27;20518;-70
2022/06/13 00:37:05;;;;;;;0.50;0.50;;;17.60;99.90;;;;;;5114632;28;20412;-69
2022/06/13 00:39:31;;;;;;;0.53;0.53;;;17.50;99.90;;;;;;5114579;28;20168;-69
2022/06/13 00:41:57;;;;;;;0.30;0.30;;;17.50;99.90;;;;;;5114655;28;20199;-69
2022/06/13 00:44:27;;;;;;;0.30;0.30;;;17.40;99.90;;;;;;5113903;28;20457;-70
2022/06/13 00:46:54;;;;;;;2.47;2.27;;;17.50;99.90;;;;;;5114176;28;20194;-69
2022/06/13 00:49:30;;;;;;;0.40;0.40;;;17.50;99.90;;;;;;5114258;28;20452;-70
2022/06/13 00:52:26;;;;;;;0.30;0.30;;;17.50;99.90;;;;;;5114304;28;20457;-69
2022/06/13 00:54:53;;;;;;;0.30;0.30;;;17.50;99.90;;;;;;5114224;28;20379;-69
2022/06/13 00:57:23;;;;;;;0.30;0.30;;;17.50;99.90;;;;;;5114333;28;20425;-70
2022/06/13 00:59:53;;;;;;;0.40;0.40;;;17.60;99.90;;;;;;5114027;28;20390;-70
2022/06/13 01:02:18;;;;;;;0.30;0.30;;;17.60;99.90;;;;;;5112593;28;20959;-69
2022/06/13 01:04:48;;;;;;;0.30;0.30;;;17.60;99.90;;;;;;5114055;28;20493;-69
2022/06/13 01:07:14;;;;;;;0.30;0.30;;;17.70;99.90;;;;;;5114237;28;20452;-69
2022/06/13 01:12:26;;;;;;;4.53;2.57;;;17.70;99.90;;;;;;5113856;28;20464;-69
2022/06/13 01:15:16;;;;;;;0.30;0.30;;;17.70;99.90;;;;;;5114128;28;20406;-70
2022/06/13 01:18:26;;;;;;;0.30;0.30;;;17.70;99.90;;;;;;5114159;28;20401;-69
2022/06/13 01:20:58;;;;;;;0.30;0.30;;;17.70;99.90;;;;;;5076296;28;20408;-70
2022/06/13 01:23:33;;;;;;;0.37;0.37;;;17.80;99.90;;;;;;5113597;28;20466;-69
2022/06/13 01:26:26;;;;;;;0.30;0.30;;;17.70;99.90;;;;;;5113874;28;20441;-70
2022/06/13 01:29:15;;;;;;;0.30;0.30;;;17.80;99.90;;;;;;5114015;28;20409;-69
2022/06/13 01:31:55;;;;;;;0.30;0.30;;;17.70;99.90;;;;;;5113951;28;20398;-68
2022/06/13 01:34:49;;;;;;;0.40;0.40;;;17.70;99.90;;;;;;5112282;28;20475;-69
2022/06/13 01:37:36;;;;;;;0.30;0.30;;;17.60;99.90;;;;;;5113747;28;20394;-69
2022/06/13 01:40:14;;;;;;;0.37;0.37;;;17.60;99.90;;;;;;5113568;28;20402;-69
2022/06/13 01:42:45;;;;;;;13.93;2.20;;;17.70;99.90;;;;;;5113484;28;20829;-70
2022/06/13 01:45:32;;;;;;;0.50;0.50;;;17.60;99.90;;;;;;5113598;28;20837;-69
2022/06/13 01:48:31;;;;;;;0.30;0.30;;;17.60;99.90;;;;;;5113999;28;20405;-68
2022/06/13 01:51:19;;;;;;;0.30;0.30;;;17.60;99.90;;;;;;5112523;28;20406;-69
2022/06/13 01:54:17;;;;;;;0.33;0.33;;;17.50;99.90;;;;;;5113370;28;20457;-69
2022/06/13 01:57:03;;;;;;;0.40;0.40;;;17.50;99.90;;;;;;5111122;28;20489;-69
2022/06/13 01:59:37;;;;;;;0.40;0.40;;;17.50;99.90;;;;;;5117264;28;20434;-70
2022/06/13 02:02:31;;;;;;;0.30;0.30;;;17.50;99.90;;;;;;5117737;28;20462;-69
2022/06/13 02:05:07;;;;;;;0.30;0.30;;;17.50;99.90;;;;;;5117554;28;20390;-69
2022/06/13 02:07:47;;;;;;;0.30;0.30;;;17.50;99.90;;;;;;5117620;28;20386;-69
2022/06/13 02:10:20;;;;;;;0.30;0.30;;;17.60;99.90;;;;;;5117288;28;20394;-68
2022/06/13 02:12:51;;;;;;;0.30;0.30;;;17.60;99.90;;;;;;5117121;28;20465;-69
2022/06/13 02:15:30;;;;;;;0.30;0.30;;;17.60;99.90;;;;;;5117393;28;20378;-69
2022/06/13 02:18:03;;;;;;;0.30;0.30;;;17.70;99.90;;;;;;5117439;28;20870;-70
2022/06/13 02:20:37;;;;;;;0.30;0.30;;;17.70;99.90;;;;;;5117271;28;20402;-68
2022/06/13 02:23:13;;;;;;;0.40;0.40;;;17.70;99.90;;;;;;5116881;28;20449;-70
2022/06/13 02:25:45;;;;;;;0.30;0.30;;;17.70;99.90;;;;;;5116907;28;20505;-70
2022/06/13 02:28:17;;;;;;;0.30;0.30;;;17.70;99.90;;;;;;5117091;28;20394;-70
2022/06/13 02:30:57;;;;;;;0.53;0.53;;;17.70;99.90;;;;;;5117121;28;20452;-69
2022/06/13 02:33:46;;;;;;;0.30;0.30;;;17.70;99.90;;;;;;5116696;28;20453;-68
2022/06/13 02:36:23;;;;;;;0.30;0.30;;;17.70;99.90;;;;;;5116913;28;20398;-69
2022/06/13 02:38:55;;;;;;;0.50;0.50;;;17.60;99.90;;;;;;5116963;27;20398;-70
2022/06/13 02:41:24;;;;;;;0.40;0.40;;;17.60;99.90;;;;;;5116828;28;20395;-69
2022/06/13 02:44:03;;;;;;;0.30;0.30;;;17.60;99.90;;;;;;5116391;28;20422;-70
2022/06/13 02:46:45;;;;;;;0.30;0.30;;;17.60;99.90;;;;;;5116711;27;20402;-69
2022/06/13 02:49:17;;;;;;;0.30;0.30;;;17.60;99.90;;;;;;5116695;28;20406;-70
2022/06/13 02:52:15;;;;;;;0.30;0.30;;;17.60;99.90;;;;;;5116646;28;20394;-70
2022/06/13 02:55:01;;;;;;;0.30;0.30;;;17.60;99.90;;;;;;5116398;28;20398;-70
2022/06/13 02:57:45;;;;;;;0.30;0.30;;;17.60;99.90;;;;;;5115529;28;20796;-69
2022/06/13 03:00:13;;;;;;;0.30;0.30;;;17.50;99.90;;;;;;5116492;28;20485;-70
2022/06/13 03:02:57;;;;;;;0.30;0.30;;;17.30;99.90;;;;;;5115974;28;20414;-69
2022/06/13 03:05:54;;;;;;;0.30;0.30;;;17.20;99.90;;;;;;5116171;27;20402;-69
2022/06/13 03:08:26;;;;;;;0.30;0.30;;;17.10;99.90;;;;;;5116335;28;20455;-69
2022/06/13 03:11:16;;;;;;;1.50;1.40;;;17.00;99.90;;;;;;5116095;28;20398;-69
2022/06/13 03:14:00;;;;;;;0.30;0.30;;;17.00;99.90;;;;;;5115719;28;20453;-70
2022/06/13 03:16:29;;;;;;;0.50;0.50;;;17.00;99.90;;;;;;5116134;28;20754;-70
2022/06/13 03:19:06;;;;;;;0.30;0.30;;;16.90;99.90;;;;;;5115857;28;20426;-69
2022/06/13 03:21:47;;;;;;;0.30;0.30;;;16.90;99.90;;;;;;5116149;28;20402;-69
2022/06/13 03:24:28;;;;;;;0.40;0.40;;;16.80;99.90;;;;;;5115606;28;20498;-69
2022/06/13 03:27:14;;;;;;;0.30;0.30;;;16.80;99.90;;;;;;5116084;28;20485;-69
2022/06/13 03:29:49;;;;;;;0.30;0.30;;;16.90;99.90;;;;;;5115947;28;20390;-68
2022/06/13 03:32:20;;;;;;;0.30;0.30;;;16.90;99.90;;;;;;5115561;28;20869;-69
2022/06/13 03:34:54;;;;;;;0.30;0.30;;;16.90;99.90;;;;;;5115777;28;20378;-69
2022/06/13 03:37:40;;;;;;;0.37;0.37;;;17.00;99.90;;;;;;5115847;28;20394;-69
2022/06/13 03:40:16;;;;;;;0.30;0.30;;;17.10;99.90;;;;;;5115781;28;20489;-70
2022/06/13 03:42:45;;;;;;;0.30;0.30;;;17.00;99.90;;;;;;5115289;28;20420;-70
2022/06/13 03:45:29;;;;;;;0.30;0.30;;;17.10;99.90;;;;;;5115486;28;20408;-69
2022/06/13 03:48:22;;;;;;;0.30;0.30;;;17.10;99.90;;;;;;5115674;28;20447;-69
2022/06/13 03:50:53;;;;;;;0.40;0.40;;;17.10;99.90;;;;;;5115612;28;20406;-68
2022/06/13 03:53:39;;;;;;;0.30;0.30;;;17.10;99.90;;;;;;5115290;27;20454;-68
2022/06/13 03:56:26;;;;;;;0.30;0.30;;;17.10;99.90;;;;;;5113978;28;20409;-69
2022/06/13 03:59:04;;;;;;;0.50;0.50;;;17.10;99.90;;;;;;5115428;28;20406;-70
2022/06/13 04:01:56;;;;;;;0.30;0.30;;;17.00;99.90;;;;;;5115096;28;20398;-69
2022/06/13 04:04:26;;;;;;;0.40;0.40;;;17.00;99.90;;;;;;5109984;28;20430;-68
2022/06/13 04:06:54;;;;;;;0.40;0.40;;;17.00;99.90;;;;;;5115132;28;20470;-68
2022/06/13 04:09:42;;;;;;;0.30;0.30;;;17.00;99.90;;;;;;5114981;28;20758;-70
2022/06/13 04:12:21;;;;;;;0.30;0.30;;;16.90;99.90;;;;;;5114669;28;20441;-70
2022/06/13 04:15:04;;;;;;;0.30;0.30;;;16.80;99.90;;;;;;5114963;28;20413;-70
2022/06/13 04:17:43;;;;;;;0.80;0.80;;;16.60;99.90;;;;;;5114591;28;20402;-70
2022/06/13 04:20:46;;;;;;;0.30;0.30;;;16.40;99.90;;;;;;5114867;28;20417;-68
2022/06/13 04:23:21;;;;;;;0.30;0.30;;;16.30;99.90;;;;;;5114388;28;20445;-70
2022/06/13 04:25:46;;;;;;;0.40;0.40;;;16.30;99.90;;;;;;5114731;28;20389;-70
2022/06/13 04:28:28;;;;;;;0.30;0.30;;;16.40;99.90;;;;;;5114585;28;20500;-70
2022/06/13 04:30:56;;;;;;;0.30;0.30;;;16.50;99.90;;;;;;5114847;28;20171;-69
2022/06/13 04:33:22;;;;;;;0.30;0.30;;;16.60;99.90;;;;;;5114238;28;20461;-70
2022/06/13 04:35:49;;;;;;;0.30;0.30;;;16.50;99.90;;;;;;5114483;28;20402;-70
2022/06/13 04:38:17;;;;;;;0.40;0.40;;;16.50;99.90;;;;;;5114881;28;20168;-69
2022/06/13 04:40:51;;;;;;;0.30;0.30;;;16.60;99.90;;;;;;5114407;28;20421;-69
2022/06/13 04:43:20;;;;;;;0.30;0.30;;;16.60;99.90;;;;;;5112996;28;21062;-70
2022/06/13 04:45:48;;;;;;;0.30;0.30;;;16.70;99.90;;;;;;5114306;28;20425;-70
2022/06/13 04:48:14;;;;;;;0.40;0.40;;;17.00;99.90;;;;;;5114223;28;20409;-69
2022/06/13 04:50:51;;;;;;;0.30;0.30;;;17.10;99.90;;;;;;5114269;28;20436;-70
2022/06/13 04:53:25;;;;;;;0.30;0.30;;;17.10;99.90;;;;;;5114227;28;20467;-69
2022/06/13 04:55:54;;;;;;;0.30;0.30;;;17.20;99.90;;;;;;5114568;28;20394;-69
2022/06/13 04:58:35;;;;;;;0.30;0.30;;;17.30;99.90;;;;;;5114316;28;20386;-70
2022/06/13 05:01:02;;;;;;;0.30;0.30;;;17.20;99.90;;;;;;5113981;28;20394;-69
2022/06/13 05:03:31;;;;;;;0.30;0.30;;;17.10;99.90;;;;;;5113810;28;20456;-69
2022/06/13 05:06:03;;;;;;;0.30;0.30;;;17.10;99.90;;;;;;5114302;28;20402;-68
2022/06/13 05:08:34;;;;;;;0.30;0.30;;;16.80;99.90;;;;;;5114256;28;20410;-70
2022/06/13 05:11:11;;;;;;;0.30;0.30;;;16.80;99.90;;;;;;5114244;28;20425;-70
2022/06/13 05:13:37;;;;;;;0.30;0.30;;;16.90;99.90;;;;;;5113760;28;20457;-70
2022/06/13 05:16:18;;;;;;;0.30;0.30;;;17.30;99.90;;;;;;5113981;28;20759;-70
2022/06/13 05:18:49;;;;;;;0.30;0.30;;;17.60;99.90;;;;;;5114167;28;20164;-70
2022/06/13 05:21:40;;;;;;;0.30;0.30;;;18.10;99.90;;;;;;5114228;28;20439;-70
2022/06/13 05:24:20;;;;;;;0.30;0.30;;;18.10;99.90;;;;;;5113628;28;20962;-69
2022/06/13 05:26:45;;;;;;;0.30;0.30;;;17.90;99.90;;;;;;5114115;28;20394;-69
2022/06/13 05:29:11;;;;;;;0.30;0.30;;;17.60;99.90;;;;;;5113926;28;20405;-69
2022/06/13 05:31:37;;;;;;;0.30;0.30;;;17.60;99.90;;;;;;5117343;28;20172;-69
2022/06/13 05:34:07;;;;;;;0.30;0.30;;;17.60;99.90;;;;;;5117643;28;20458;-70
2022/06/13 05:36:32;;;;;;;0.50;0.50;;;17.50;99.90;;;;;;5117895;28;20439;-69
2022/06/13 05:39:00;;;;;;;0.30;0.30;;;17.50;99.90;;;;;;5117967;27;20474;-69
2022/06/13 05:41:26;;;;;;;0.60;0.60;;;17.80;99.90;;;;;;5118256;28;20171;-69
2022/06/13 05:43:52;;;;;;;0.30;0.30;;;18.20;99.90;;;;;;5117656;28;20938;-70
2022/06/13 05:46:25;;;;;;;0.30;0.30;;;18.20;99.90;;;;;;5117955;28;20403;-69
2022/06/13 05:48:51;;;;;;;0.30;0.30;;;18.10;99.90;;;;;;5117618;28;20824;-70
2022/06/13 05:51:18;;;;;;;0.30;0.30;;;17.90;99.90;;;;;;5117905;28;20797;-70
2022/06/13 05:53:43;;;;;;;0.30;0.30;;;17.80;99.90;;;;;;5117509;28;20492;-70
2022/06/13 05:56:10;;;;;;;0.30;0.30;;;17.60;99.90;;;;;;5117783;28;20438;-69
2022/06/13 05:58:37;;;;;;;0.50;0.40;;;17.50;99.90;;;;;;5116368;28;20172;-70
2022/06/13 06:01:05;;;;;;;0.30;0.30;;;17.50;99.90;;;;;;5117646;28;20808;-70
2022/06/13 06:03:31;;;;;;;0.57;0.57;;;17.50;99.90;;;;;;5117245;28;20956;-68
2022/06/13 06:05:59;;;;;;;0.30;0.30;;;17.70;99.90;;;;;;5117617;28;20398;-70
2022/06/13 06:08:29;;;;;;;0.40;0.40;;;17.90;99.90;;;;;;5117452;27;20834;-70
2022/06/13 06:10:56;;;;;;;0.30;0.30;;;18.20;99.90;;;;;;5117419;27;20823;-69
2022/06/13 06:13:23;;;;;;;0.30;0.30;;;18.60;99.90;;;;;;5117001;28;20455;-70
2022/06/13 06:15:51;;;;;;;0.40;0.40;;;19.20;99.90;;;;;;5117157;28;20431;-70
2022/06/13 06:18:17;;;;;;;0.40;0.40;;;19.80;99.90;;;;;;5117588;28;20402;-70
2022/06/13 06:20:44;;;;;;;0.30;0.30;;;19.70;99.90;;;;;;5117095;28;20393;-69
2022/06/13 06:23:12;;;;;;;0.87;0.87;;;19.90;99.90;;;;;;5114814;28;20828;-69
2022/06/13 06:25:38;;;;;;;0.30;0.30;;;20.40;98.70;;;;;;5116006;28;20402;-69
2022/06/13 06:28:04;;;;;;;0.30;0.30;;;21.20;96.90;;;;;;5115803;28;20414;-69
2022/06/13 06:30:31;;;;;;;0.30;0.30;;;21.60;95.30;;;;;;5115856;28;20404;-71
2022/06/13 06:32:58;;;;;;;0.30;0.30;;;21.40;95.80;;;;;;5115367;28;20457;-69
2022/06/13 06:35:27;;;;;;;0.30;0.30;;;21.20;94.10;;;;;;5115607;28;20392;-70
2022/06/13 06:37:54;;;;;;;0.50;0.50;;;21.40;93.60;;;;;;5115701;28;20746;-70
2022/06/13 06:40:23;;;;;;;0.30;0.30;;;22.00;92.30;;;;;;5115713;28;20394;-71
2022/06/13 06:42:49;;;;;;;0.30;0.30;;;23.40;94.10;;;;;;5115062;28;20414;-70
2022/06/13 06:45:15;;;;;;;0.30;0.30;;;24.10;88.80;;;;;;5115460;28;20413;-69
2022/06/13 06:47:41;;;;;;;0.30;0.30;;;24.80;83.30;;;;;;5115449;28;20456;-71
2022/06/13 06:50:13;;;;;;;0.40;0.40;;;25.90;84.80;;;;;;5115438;28;20405;-70
2022/06/13 06:52:40;;;;;;;0.30;0.30;;;26.70;83.40;;;;;;5115078;28;20479;-69
2022/06/13 07:00:38;;;;;;;0.30;0.30;;;24.50;81.60;;;;;;5115332;28;20397;-70
2022/06/13 07:03:04;;;;;;;0.30;0.30;;;23.50;86.40;;;;;;5114909;28;20991;-69
2022/06/13 07:05:30;;;;;;;0.40;0.40;;;22.90;88.60;;;;;;5115133;28;20406;-69
2022/06/13 07:07:55;;;;;;;0.30;0.30;;;22.40;88.80;;;;;;5115260;28;20171;-71
2022/06/13 07:10:21;;;;;;;0.30;0.30;;;22.60;89.80;;;;;;5114968;28;20463;-70
2022/06/13 07:12:46;;;;;;;0.30;0.30;;;23.50;86.30;;;;;;5115087;28;20203;-70
2022/06/13 07:15:16;;;;;;;0.30;0.30;;;24.20;83.70;;;;;;5115157;28;20160;-70
2022/06/13 07:17:41;;;;;;;0.30;0.30;;;26.00;81.00;;;;;;5115054;28;20160;-69
2022/06/13 07:20:08;;;;;;;0.40;0.40;;;27.80;76.00;;;;;;5115142;28;20957;-71
2022/06/13 07:22:34;;;;;;;0.30;0.30;;;29.10;65.10;;;;;;5075284;28;1125348;-70
2022/06/13 07:25:00;;;;;;;0.30;0.30;;;30.50;61.70;;;;;;5116140;28;20176;-71
2022/06/13 07:27:25;;;;;;;0.30;0.30;;;30.90;56.80;;;;;;5115883;28;20172;-71
2022/06/13 07:29:51;;;;;;;0.30;0.30;;;30.80;53.40;;;;;;5115857;28;20538;-70
2022/06/13 07:32:20;;;;;;;0.30;0.30;;;30.90;54.70;;;;;;5115491;28;20333;-69
2022/06/13 07:34:48;;;;;;;0.30;0.30;;;31.20;50.70;;;;;;5115698;28;20171;-70
2022/06/13 07:38:16;;;;;;;0.90;0.50;;;31.30;50.90;;;;;;5115835;28;20394;-69
2022/06/13 07:40:05;;;;;;;0.40;0.40;;;30.60;52.70;;;;;;5115490;28;20414;-70
2022/06/13 07:42:44;;;;;;;0.30;0.30;;;29.90;52.00;;;;;;5115288;28;20467;-70
2022/06/13 07:45:16;;;;;;;0.30;0.30;;;29.70;52.00;;;;;;5115626;27;20397;-69
2022/06/13 07:47:42;;;;;;;0.30;0.30;;;30.40;52.50;;;;;;5114109;28;20425;-70
2022/06/13 07:50:12;;;;;;;0.30;0.30;;;31.10;46.40;;;;;;5115399;28;20485;-71
2022/06/13 07:52:37;;;;;;;0.50;0.50;;;32.40;48.60;;;;;;5114341;28;20548;-71
2022/06/13 07:55:03;;;;;;;0.30;0.30;;;33.40;45.30;;;;;;5115159;28;20497;-71
2022/06/13 07:57:29;;;;;;;0.40;0.40;;;34.20;42.20;;;;;;5114936;28;20508;-71
2022/06/13 07:59:55;;;;;;;0.30;0.30;;;34.00;42.00;;;;;;5115243;28;20398;-71
2022/06/13 08:02:20;;;;;;;1.27;0.63;;;33.00;39.40;;;;;;5115013;28;20172;-71
2022/06/13 08:04:46;;;;;;;0.30;0.30;;;33.20;43.50;;;;;;5115112;28;20183;-70
2022/06/13 08:07:15;;;;;;;0.30;0.30;;;33.70;39.40;;;;;;5115138;27;20176;-70
2022/06/13 08:09:40;;;;;;;0.30;0.30;;;33.20;40.50;;;;;;5115108;28;20179;-71
2022/06/13 08:12:09;;;;;;;0.30;0.30;;;32.10;40.50;;;;;;5114750;28;20402;-71
2022/06/13 08:14:34;;;;;;;0.30;0.30;;;32.00;40.30;;;;;;5114848;28;20719;-71
2022/06/13 08:17:00;;;;;;;0.30;0.30;;;32.10;41.50;;;;;;5113790;28;20459;-71
2022/06/13 08:19:25;;;;;;;0.30;0.30;;;32.20;43.00;;;;;;5114875;28;20168;-71
2022/06/13 08:21:51;;;;;;;0.30;0.30;;;32.00;42.40;;;;;;5115158;28;20168;-71
2022/06/13 08:24:17;;;;;;;0.40;0.40;;;32.50;41.00;;;;;;5114444;28;20207;-71
2022/06/13 08:26:43;;;;;;;0.60;0.60;;;31.60;38.10;;;;;;5114841;27;20169;-70
2022/06/13 08:29:10;;;;;;;0.37;0.37;;;30.60;38.80;;;;;;5114811;28;20405;-71
2022/06/13 08:31:36;;;;;;;0.30;0.30;;;31.30;40.60;;;;;;5114568;27;20172;-70
2022/06/13 08:34:04;;;;;;;0.30;0.30;;;32.50;41.20;;;;;;5114285;28;20461;-71
2022/06/13 08:36:29;;;;;;;0.40;0.40;;;32.60;38.60;;;;;;5114932;28;20444;-71
2022/06/13 08:38:55;;;;;;;0.50;0.50;;;32.60;39.90;;;;;;5114817;28;20871;-70
2022/06/13 08:41:32;;;;;;;0.30;0.30;;;32.40;39.60;;;;;;5114583;28;20176;-71
2022/06/13 08:44:12;;;;;;;0.30;0.30;;;32.90;41.30;;;;;;5114225;28;20202;-70
2022/06/13 08:46:51;;;;;;;0.30;0.30;;;33.30;37.00;;;;;;5114414;28;20401;-71
2022/06/13 08:49:35;;;;;;;0.30;0.30;;;33.50;38.10;;;;;;5114388;28;20756;-71
2022/06/13 08:52:27;;;;;;;0.40;0.40;;;33.60;39.60;;;;;;5114208;28;20764;-71
2022/06/13 08:55:14;;;;;;;0.40;0.40;;;33.80;36.20;;;;;;5114286;28;20383;-71
2022/06/13 08:57:47;;;;;;;0.30;0.30;;;34.60;36.50;;;;;;5114358;28;20387;-71
2022/06/13 09:00:20;;;;;;;0.80;0.80;;;33.80;35.40;;;;;;5114382;28;20393;-71
2022/06/13 09:03:02;;;;;;;0.30;0.30;;;33.30;37.10;;;;;;5114088;28;20425;-71
2022/06/13 09:05:34;;;;;;;0.30;0.30;;;33.40;37.70;;;;;;5114185;28;20405;-70
2022/06/13 09:08:10;;;;;;;0.50;0.50;;;34.20;40.00;;;;;;5114309;28;20498;-69
2022/06/13 09:10:47;;;;;;;0.40;0.40;;;33.80;37.50;;;;;;5114205;28;20401;-72
2022/06/13 09:13:33;;;;;;;0.40;0.30;;;33.50;36.50;;;;;;5113848;28;20543;-70
2022/06/13 09:16:14;;;;;;;0.30;0.30;;;32.70;38.20;;;;;;5114044;28;20397;-71
2022/06/13 09:18:52;;;;;;;0.50;0.50;;;33.10;38.30;;;;;;5114145;28;20396;-71
2022/06/13 09:21:34;;;;;;;0.30;0.30;;;33.30;36.90;;;;;;5113972;28;20394;-70
2022/06/13 09:24:23;;;;;;;0.30;0.30;;;33.40;35.00;;;;;;5113577;28;20448;-70
2022/06/13 09:27:04;;;;;;;0.30;0.30;;;33.20;36.10;;;;;;5108382;28;20777;-71
2022/06/13 09:29:33;;;;;;;0.40;0.40;;;33.30;37.70;;;;;;5114080;28;20397;-71
2022/06/13 09:32:08;;;;;;;0.30;0.30;;;33.00;39.60;;;;;;5113715;28;20463;-70
2022/06/13 09:34:40;;;;;;;0.80;0.80;;;32.90;36.00;;;;;;5113785;28;20429;-70
2022/06/13 09:37:23;;;;;;;0.30;0.30;;;32.80;37.50;;;;;;5114016;28;20412;-70
2022/06/13 09:39:49;;;;;;;0.30;0.30;;;32.70;36.30;;;;;;5113911;28;20443;-71
2022/06/13 09:42:50;;;;;;;0.30;0.30;;;32.60;37.60;;;;;;5113745;28;20409;-71
2022/06/13 09:45:30;;;;;;;1.70;1.30;;;31.70;40.40;;;;;;5100330;28;20558;-70
2022/06/13 09:48:08;;;;;;;0.30;0.30;;;31.60;38.00;;;;;;5113835;28;20417;-71
2022/06/13 09:50:43;;;;;;;0.83;0.83;;;31.20;40.70;;;;;;5113808;28;20401;-71
2022/06/13 09:53:13;;;;;;;0.40;0.40;;;32.00;40.20;;;;;;5113532;28;20827;-69
2022/06/13 09:55:57;;;;;;;0.30;0.30;;;31.30;38.10;;;;;;5114040;28;20406;-70
2022/06/13 09:58:54;;;;;;;0.57;0.57;;;31.80;41.40;;;;;;5113976;28;20417;-70
2022/06/13 10:01:33;;;;;;;0.40;0.40;;;31.40;39.10;;;;;;5113981;28;20454;-71
2022/06/13 10:04:10;;;;;;;0.50;0.50;;;31.30;40.10;;;;;;5113394;28;20922;-70
2022/06/13 10:07:03;;;;;;;0.40;0.40;;;30.70;41.60;;;;;;5113906;28;20397;-71
2022/06/13 10:09:59;;;;;;;0.33;0.33;;;30.60;40.20;;;;;;5113488;28;20886;-71
2022/06/13 10:12:41;;;;;;;0.40;0.40;;;30.90;39.40;;;;;;5113480;28;20461;-70
2022/06/13 10:15:13;;;;;;;0.30;0.30;;;30.50;37.00;;;;;;5113526;28;20482;-70
2022/06/13 10:18:08;;;;;;;0.67;0.67;;;30.20;38.70;;;;;;5116695;28;20521;-70
2022/06/13 10:20:55;;;;;;;0.30;0.30;;;29.90;37.60;;;;;;5117441;28;20454;-70
2022/06/13 10:23:47;;;;;;;0.30;0.30;;;30.10;39.70;;;;;;5115484;28;20969;-71
2022/06/13 10:26:54;;;;;;;0.40;0.40;;;30.50;42.40;;;;;;5117203;28;20497;-71
2022/06/13 10:29:32;;;;;;;0.30;0.30;;;30.40;40.30;;;;;;5117249;28;20405;-70
2022/06/13 10:32:36;;;;;;;0.30;0.30;;;30.10;43.00;;;;;;5117113;27;20889;-70
2022/06/13 10:35:16;;;;;;;0.30;0.30;;;30.10;38.80;;;;;;5116416;28;20414;-70
2022/06/13 10:38:13;;;;;;;0.30;0.30;;;29.70;38.60;;;;;;5117105;28;20481;-69
2022/06/13 10:40:40;;;;;;;0.40;0.40;;;29.10;36.80;;;;;;5116649;28;20906;-70
2022/06/13 10:43:07;;;;;;;0.30;0.30;;;29.10;40.30;;;;;;5116646;28;20435;-69
2022/06/13 10:45:35;;;;;;;0.30;0.30;;;29.30;41.60;;;;;;5116750;28;20409;-69
2022/06/13 10:48:03;;;;;;;0.30;0.30;;;29.30;39.40;;;;;;5116582;28;20772;-71
2022/06/13 10:50:40;;;;;;;0.30;0.30;;;29.00;44.20;;;;;;5116638;28;20498;-70
2022/06/13 10:53:16;;;;;;;0.30;0.30;;;28.60;44.40;;;;;;5116381;28;20460;-70
2022/06/13 10:55:42;;;;;;;0.57;0.57;;;28.00;39.30;;;;;;5116936;28;20397;-71
2022/06/13 10:58:25;;;;;;;0.30;0.30;;;27.00;40.60;;;;;;5116535;28;20398;-71
2022/06/13 11:01:02;;;;;;;0.30;0.30;;;26.70;44.20;;;;;;5116552;28;20398;-70
2022/06/13 11:03:27;;;;;;;0.30;0.30;;;26.40;48.30;;;;;;5116203;28;20432;-70
2022/06/13 11:05:57;;;;;;;0.30;0.30;;;26.20;44.10;;;;;;5116267;28;20406;-70
2022/06/13 11:08:23;;;;;;;0.30;0.30;;;26.00;46.20;;;;;;5116642;28;20428;-70
2022/06/13 11:10:58;;;;;;;0.30;0.30;;;25.90;45.50;;;;;;5116292;28;20402;-71
2022/06/13 11:13:36;;;;;;;0.30;0.30;;;25.90;46.50;;;;;;5115854;28;20438;-70
2022/06/13 11:22:38;;;;;;;0.30;0.30;;;25.60;44.10;;;;;;5073980;28;20373;-70
2022/06/13 11:25:16;;;;;;;0.30;0.30;;;25.50;44.90;;;;;;5116275;28;20416;-71
2022/06/13 11:27:42;;;;;;;0.50;0.50;;;25.30;46.90;;;;;;5114965;28;20404;-69
2022/06/13 11:30:26;;;;;;;0.30;0.30;;;25.20;47.60;;;;;;5116066;27;20410;-70
2022/06/13 11:33:17;;;;;;;0.30;0.30;;;25.00;48.40;;;;;;5115639;28;20461;-70
2022/06/13 11:35:50;;;;;;;0.60;0.60;;;24.90;45.80;;;;;;5110794;28;20385;-69
2022/06/13 11:38:19;;;;;;;0.30;0.30;;;24.90;50.40;;;;;;5115786;28;20398;-69
2022/06/13 11:41:19;;;;;;;0.40;0.40;;;24.70;46.20;;;;;;5115791;28;20394;-70
2022/06/13 11:43:46;;;;;;;0.30;0.30;;;24.60;49.10;;;;;;5092099;28;20401;-70
2022/06/13 11:46:51;;;;;;;0.30;0.30;;;24.60;47.60;;;;;;5115627;28;20406;-70
2022/06/13 11:49:17;;;;;;;0.30;0.30;;;24.80;47.60;;;;;;5115644;28;20726;-70
2022/06/13 11:53:35;;;;;;;0.30;0.30;;;24.70;45.30;;;;;;5115633;28;20376;-70
2022/06/13 11:55:17;;;;;;;0.50;0.50;;;24.50;44.20;;;;;;5072421;28;20182;-70
2022/06/13 11:57:51;;;;;;;0.30;0.30;;;24.50;48.30;;;;;;5115514;28;20398;-70
2022/06/13 12:00:18;;;;;;;0.30;0.30;;;24.30;45.60;;;;;;5115501;28;20375;-70
2022/06/13 12:02:50;;;;;;;0.73;0.73;;;24.10;48.10;;;;;;5114934;28;20396;-70
2022/06/13 12:05:22;;;;;;;0.30;0.30;;;24.10;46.80;;;;;;5115215;28;20377;-70
2022/06/13 12:07:52;;;;;;;0.30;0.30;;;24.10;48.80;;;;;;5115222;28;20429;-70
2022/06/13 12:10:20;;;;;;;0.30;0.30;;;24.10;47.10;;;;;;5115164;28;20467;-70
2022/06/13 12:12:46;;;;;;;0.57;0.57;;;24.00;47.80;;;;;;5114681;28;20865;-70
2022/06/13 12:15:14;;;;;;;0.83;0.83;;;23.80;46.40;;;;;;5115070;28;20377;-70
2022/06/13 12:17:46;;;;;;;0.30;0.30;;;23.60;46.70;;;;;;5114891;28;20410;-70
2022/06/13 12:20:31;;;;;;;0.30;0.30;;;23.60;47.40;;;;;;5115091;28;20451;-69
2022/06/13 12:23:07;;;;;;;0.30;0.30;;;23.80;49.80;;;;;;5114628;28;20872;-69
2022/06/13 12:25:47;;;;;;;0.30;0.30;;;23.70;46.20;;;;;;5114756;28;20394;-69
2022/06/13 12:28:16;;;;;;;0.30;0.30;;;23.80;50.40;;;;;;5114935;28;20398;-70
2022/06/13 12:30:49;;;;;;;2.20;1.20;;;23.90;47.70;;;;;;5114816;28;20398;-70
2022/06/13 12:33:33;;;;;;;0.30;0.30;;;23.80;46.50;;;;;;5114728;28;20556;-70
2022/06/13 12:36:17;;;;;;;0.30;0.30;;;23.80;46.80;;;;;;5114926;28;20387;-70
2022/06/13 12:39:11;;;;;;;0.30;0.30;;;23.80;50.20;;;;;;5114288;28;20394;-68
2022/06/13 12:41:42;;;;;;;0.30;0.30;;;23.50;44.70;;;;;;5114415;28;20447;-69
2022/06/13 12:44:28;;;;;;;0.30;0.30;;;23.60;47.20;;;;;;5114302;28;20831;-70
2022/06/13 12:47:13;;;;;;;0.30;0.30;;;23.70;46.90;;;;;;5093052;28;20417;-69
2022/06/13 12:50:12;;;;;;;0.30;0.30;;;23.90;45.60;;;;;;5114517;28;20394;-70
2022/06/13 12:52:56;;;;;;;0.30;0.30;;;23.90;47.20;;;;;;5113931;28;20478;-69
2022/06/13 12:55:40;;;;;;;0.30;0.30;;;23.90;44.90;;;;;;5114313;28;20361;-70
2022/06/13 12:58:33;;;;;;;0.30;0.30;;;24.00;47.30;;;;;;5114091;28;20402;-69
2022/06/13 13:01:27;;;;;;;0.30;0.30;;;23.90;44.60;;;;;;5114239;28;20368;-69
2022/06/13 13:04:05;;;;;;;0.30;0.30;;;23.70;44.90;;;;;;5113974;27;20504;-71
2022/06/13 13:06:58;;;;;;;0.30;0.30;;;23.60;45.20;;;;;;5114091;28;20390;-70
2022/06/13 13:09:47;;;;;;;0.30;0.30;;;23.40;43.60;;;;;;5114441;28;20412;-68
2022/06/13 13:12:30;;;;;;;0.30;0.30;;;23.10;45.90;;;;;;5113514;28;20414;-71
2022/06/13 13:15:32;;;;;;;0.30;0.30;;;23.20;46.10;;;;;;5114239;28;20428;-69
2022/06/13 13:18:24;;;;;;;0.87;0.60;;;23.30;47.30;;;;;;5114266;28;20458;-69
2022/06/13 13:20:58;;;;;;;0.30;0.30;;;23.20;46.40;;;;;;5114116;28;20493;-70
2022/06/13 13:23:48;;;;;;;0.30;0.30;;;23.20;44.10;;;;;;5113647;28;20447;-70
2022/06/13 13:26:20;;;;;;;0.40;0.40;;;23.10;43.60;;;;;;5112702;28;20414;-70
2022/06/13 13:28:54;;;;;;;0.30;0.30;;;23.10;44.40;;;;;;5114058;28;20409;-70
2022/06/13 13:32:03;;;;;;;0.30;0.30;;;23.10;43.60;;;;;;5113872;28;20415;-70
2022/06/13 13:34:51;;;;;;;0.30;0.30;;;22.90;43.60;;;;;;5084543;28;20451;-69
2022/06/13 13:37:19;;;;;;;1.20;1.13;;;22.70;41.90;;;;;;5114029;28;20415;-70
2022/06/13 13:40:03;;;;;;;0.30;0.30;;;22.60;44.40;;;;;;5113834;28;20406;-70
2022/06/13 13:42:55;;;;;;;0.30;0.30;;;22.70;43.70;;;;;;5113327;28;20399;-69